Time;durP1;ratioP1;P1;durP2;ratioP2;P2;SDS_P1;SDS_P2;PMS_P1;PMS_P2;Temp;Humidity;BMP_temperature;BMP_pressure;BME280_temperature;BME280_humidity;BME280_pressure;Samples;Min_cycle;Max_cycle;Signal;HPM_P1;HPM_P2
2022/10/02 00:00:20;;;;;;;2.63;1.70;;;;;;;16.24;91.05;96015.94;6126205;23;20022;-67
2022/10/02 00:02:53;;;;;;;2.78;1.92;;;;;;;16.24;91.79;95999.25;6126480;23;20029;-67
2022/10/02 00:05:28;;;;;;;1.77;1.60;;;;;;;16.20;92.97;95981.97;6126438;23;20022;-69
2022/10/02 00:08:03;;;;;;;2.38;1.80;;;;;;;16.24;93.81;95889.28;6126374;23;20041;-65
2022/10/02 00:10:36;;;;;;;2.25;1.65;;;;;;;16.17;93.72;95948.72;6126305;23;20381;-66
2022/10/02 00:13:07;;;;;;;3.40;1.90;;;;;;;16.27;93.24;95955.03;6126468;23;20482;-65
2022/10/02 00:15:41;;;;;;;2.55;2.00;;;;;;;16.31;92.85;95929.25;6126564;23;20092;-63
2022/10/02 00:18:13;;;;;;;2.42;1.63;;;;;;;16.33;92.29;95923.88;6126697;23;20018;-65
2022/10/02 00:20:49;;;;;;;4.57;2.45;;;;;;;16.32;91.51;95919.56;6126055;23;20018;-65
2022/10/02 00:23:22;;;;;;;1.50;1.40;;;;;;;16.33;92.20;95914.19;6126163;23;20092;-67
2022/10/02 00:25:56;;;;;;;2.25;1.63;;;;;;;16.31;92.05;95896.78;6126554;23;20456;-63
2022/10/02 00:28:27;;;;;;;3.75;2.20;;;;;;;16.27;91.76;95901.41;6125887;23;20022;-65
2022/10/02 00:31:09;;;;;;;2.17;1.80;;;;;;;16.26;92.30;95899.72;6126002;23;20488;-68
2022/10/02 00:33:52;;;;;;;4.22;1.75;;;;;;;16.31;92.19;95907.34;6126252;23;20032;-66
2022/10/02 00:36:32;;;;;;;2.15;1.85;;;;;;;16.38;90.81;95903.28;6126383;23;20022;-65
2022/10/02 00:39:07;;;;;;;2.97;1.52;;;;;;;16.38;90.38;95909.41;6126500;23;20085;-66
2022/10/02 00:42:06;;;;;;;1.55;1.45;;;;;;;16.34;90.68;95883.38;6126588;23;20028;-67
2022/10/02 00:44:47;;;;;;;3.13;1.95;;;;;;;16.30;90.73;95856.34;6103630;23;20081;-64
2022/10/02 00:47:23;;;;;;;1.73;1.63;;;;;;;16.19;90.67;95835.16;6128504;23;20064;-65
2022/10/02 00:50:03;;;;;;;1.65;1.55;;;;;;;16.13;90.91;95833.78;6128076;23;20022;-66
2022/10/02 00:52:48;;;;;;;1.58;1.48;;;;;;;16.10;91.30;95841.97;6128277;23;20147;-66
2022/10/02 00:55:33;;;;;;;3.42;1.50;;;;;;;16.07;91.33;95847.44;6127721;23;20022;-65
2022/10/02 00:58:25;;;;;;;1.52;1.42;;;;;;;16.08;91.18;95849.97;6128206;23;20101;-66
2022/10/02 01:01:02;;;;;;;5.13;1.42;;;;;;;16.12;91.33;95853.22;6118102;23;20076;-65
2022/10/02 01:03:38;;;;;;;0.85;0.85;;;;;;;16.19;91.01;95851.00;6127852;23;20097;-66
2022/10/02 01:06:06;;;;;;;1.23;1.13;;;;;;;16.23;90.28;95849.81;6128545;23;20456;-69
2022/10/02 01:08:33;;;;;;;1.48;1.35;;;;;;;16.26;89.72;95839.88;6127666;23;20018;-66
2022/10/02 01:11:01;;;;;;;1.13;1.02;;;;;;;16.33;88.86;95823.59;6128215;23;20022;-70
2022/10/02 01:13:29;;;;;;;1.70;1.42;;;;;;;16.39;87.75;95825.81;6127930;23;20487;-70
2022/10/02 01:16:02;;;;;;;2.33;1.35;;;;;;;16.42;87.09;95834.34;6127692;23;20466;-68
2022/10/02 01:18:31;;;;;;;1.13;1.02;;;;;;;16.42;86.95;95842.25;6127939;23;20057;-63
2022/10/02 01:21:04;;;;;;;2.20;1.10;;;;;;;16.37;86.77;95860.22;6128053;23;20061;-64
2022/10/02 01:23:41;;;;;;;1.20;1.10;;;;;;;16.33;87.47;95885.16;6127644;23;20244;-64
2022/10/02 01:26:10;;;;;;;2.50;1.38;;;;;;;16.40;88.13;95888.16;6127953;23;20021;-67
2022/10/02 01:28:37;;;;;;;3.53;0.95;;;;;;;16.44;87.67;95888.81;6127837;23;20271;-64
2022/10/02 01:31:09;;;;;;;1.58;1.15;;;;;;;16.46;86.66;95881.63;6128078;23;20029;-63
2022/10/02 01:33:40;;;;;;;1.42;1.08;;;;;;;16.49;86.07;95884.03;6127602;23;20022;-63
2022/10/02 01:36:08;;;;;;;1.00;0.90;;;;;;;16.46;85.48;95884.28;6127610;23;20054;-62
2022/10/02 01:38:36;;;;;;;0.90;0.90;;;;;;;16.41;85.19;95887.25;6128032;23;20056;-61
2022/10/02 01:41:06;;;;;;;0.82;0.80;;;;;;;16.36;84.74;95902.56;6128089;23;20085;-62
2022/10/02 01:43:37;;;;;;;1.00;0.88;;;;;;;16.24;84.61;95902.47;6127840;23;20022;-62
2022/10/02 01:46:24;;;;;;;2.17;1.30;;;;;;;16.22;84.98;95903.56;6127747;23;20385;-61
2022/10/02 01:49:01;;;;;;;1.25;1.15;;;;;;;16.20;85.04;95898.38;6127885;23;20398;-62
2022/10/02 01:51:48;;;;;;;1.13;1.02;;;;;;;16.21;84.92;95894.78;6127877;23;20034;-62
2022/10/02 01:54:24;;;;;;;4.70;1.10;;;;;;;16.20;84.66;95902.81;6126946;23;20397;-62
2022/10/02 01:56:58;;;;;;;1.67;1.35;;;;;;;16.12;85.98;95898.91;6127818;23;20322;-61
2022/10/02 01:59:39;;;;;;;1.15;1.05;;;;;;;16.10;85.99;95890.25;6127176;23;20105;-62
2022/10/02 02:02:11;;;;;;;;;;;;;;;16.03;86.12;95889.00;6127751;23;20058;-63
2022/10/02 02:04:46;;;;;;;1.60;1.50;;;;;;;16.00;87.51;95898.00;6127506;23;19960;-62
2022/10/02 02:07:24;;;;;;;1.90;1.45;;;;;;;15.90;87.99;95887.19;6127326;23;20093;-62
2022/10/02 02:09:57;;;;;;;1.42;0.98;;;;;;;15.94;89.20;95874.66;6127529;23;20022;-62
2022/10/02 02:12:34;;;;;;;0.88;0.88;;;;;;;16.00;89.64;95865.50;6127559;23;20531;-62
2022/10/02 02:15:07;;;;;;;1.00;0.85;;;;;;;16.12;89.34;95875.19;6127411;23;20022;-62
2022/10/02 02:17:43;;;;;;;1.00;0.90;;;;;;;16.19;89.57;95866.84;6127531;23;20022;-62
2022/10/02 02:20:16;;;;;;;1.00;0.80;;;;;;;16.23;89.94;95871.78;6127417;23;20022;-62
2022/10/02 02:22:46;;;;;;;2.95;0.80;;;;;;;16.27;89.55;95875.88;6127369;23;20026;-61
2022/10/02 02:25:15;;;;;;;;;;;;;;;16.34;89.50;95883.38;6128178;23;20022;-62
2022/10/02 02:27:46;;;;;;;1.00;0.80;;;;;;;16.39;89.62;95878.59;6126910;23;19917;-62
2022/10/02 02:30:16;;;;;;;0.70;0.70;;;;;;;16.45;89.67;95895.75;6127222;23;20025;-62
2022/10/02 02:32:47;;;;;;;0.98;0.80;;;;;;;16.49;89.50;95905.13;6127810;23;20025;-61
2022/10/02 02:35:19;;;;;;;0.60;0.60;;;;;;;16.53;88.45;95928.56;6126975;23;20096;-61
2022/10/02 02:37:51;;;;;;;0.65;0.63;;;;;;;16.57;88.27;95941.53;6126783;23;20524;-63
2022/10/02 02:40:22;;;;;;;0.60;0.60;;;;;;;16.64;87.86;95958.63;6127112;23;20054;-62
2022/10/02 02:42:56;;;;;;;1.23;0.80;;;;;;;16.64;87.85;95958.63;6127608;23;20022;-61
2022/10/02 02:45:29;;;;;;;0.50;0.50;;;;;;;16.70;86.90;95963.47;6126891;23;20022;-62
2022/10/02 02:48:02;;;;;;;0.63;0.63;;;;;;;16.71;87.03;95972.25;6127442;23;20057;-62
2022/10/02 02:50:32;;;;;;;0.60;0.60;;;;;;;16.68;86.43;95965.41;6127029;23;20033;-62
2022/10/02 02:53:05;;;;;;;0.80;0.80;;;;;;;16.76;86.85;95964.81;6126996;23;20018;-63
2022/10/02 02:55:35;;;;;;;1.48;0.82;;;;;;;16.74;87.04;95964.09;6127385;23;20033;-62
2022/10/02 02:58:07;;;;;;;1.20;1.10;;;;;;;16.84;85.68;95970.41;6126800;23;20326;-62
2022/10/02 03:00:36;;;;;;;1.35;0.50;;;;;;;16.83;85.44;95974.00;6126555;23;20025;-63
2022/10/02 03:03:04;;;;;;;0.90;0.90;;;;;;;16.84;85.95;95978.34;6126976;23;20018;-62
2022/10/02 03:05:33;;;;;;;0.70;0.70;;;;;;;16.86;85.55;95983.50;6126801;23;20097;-63
2022/10/02 03:08:03;;;;;;;1.13;1.08;;;;;;;16.87;84.58;95986.03;6127113;23;20452;-63
2022/10/02 03:10:41;;;;;;;1.00;1.00;;;;;;;16.89;85.14;95996.50;6126828;23;20029;-63
2022/10/02 03:13:21;;;;;;;1.05;0.80;;;;;;;16.92;84.21;95991.81;6126976;23;20025;-63
2022/10/02 03:16:04;;;;;;;0.80;0.80;;;;;;;16.98;84.15;96003.72;6126301;23;20050;-62
2022/10/02 03:18:50;;;;;;;1.05;0.98;;;;;;;16.96;83.64;96010.09;6126743;23;20072;-63
2022/10/02 03:21:32;;;;;;;0.85;0.85;;;;;;;16.97;83.32;96006.47;6127201;23;20047;-62
2022/10/02 03:24:10;;;;;;;1.25;0.80;;;;;;;17.09;82.06;96021.47;6126646;23;20018;-62
2022/10/02 03:26:44;;;;;;;0.68;0.68;;;;;;;17.14;81.90;96018.50;6126424;23;20097;-62
2022/10/02 03:29:29;;;;;;;1.10;0.93;;;;;;;17.10;81.98;96009.13;6126358;23;20021;-62
2022/10/02 03:31:59;;;;;;;0.65;0.65;;;;;;;17.14;80.22;96022.00;6126553;23;20018;-61
2022/10/02 03:34:27;;;;;;;1.13;0.90;;;;;;;17.13;80.42;96020.28;6126778;23;20025;-61
2022/10/02 03:36:54;;;;;;;0.90;0.90;;;;;;;17.14;80.70;96015.88;6127148;23;20356;-62
2022/10/02 03:39:21;;;;;;;0.80;0.80;;;;;;;17.11;79.05;96022.22;6126669;23;20029;-61
2022/10/02 03:41:48;;;;;;;0.95;0.68;;;;;;;17.12;78.31;96020.41;6126493;23;20022;-61
2022/10/02 03:44:15;;;;;;;0.70;0.70;;;;;;;17.10;79.03;96020.50;6126464;23;20053;-61
2022/10/02 03:46:42;;;;;;;0.93;0.85;;;;;;;17.07;77.60;96020.78;6126711;23;20077;-61
2022/10/02 03:49:11;;;;;;;0.85;0.70;;;;;;;17.05;75.75;96025.28;6126849;23;20093;-61
2022/10/02 03:51:38;;;;;;;0.65;0.65;;;;;;;16.98;78.20;96026.69;6126533;23;20022;-61
2022/10/02 03:54:16;;;;;;;0.70;0.70;;;;;;;16.92;73.98;96033.25;6126905;23;20081;-61
2022/10/02 03:56:51;;;;;;;0.75;0.70;;;;;;;16.96;75.15;96033.84;6125895;23;20022;-62
2022/10/02 03:59:33;;;;;;;0.80;0.80;;;;;;;16.83;75.03;96037.41;6126276;23;20026;-62
2022/10/02 04:02:06;;;;;;;0.77;0.77;;;;;;;16.82;73.21;96027.75;6126118;23;20026;-62
2022/10/02 04:04:44;;;;;;;0.50;0.50;;;;;;;16.78;73.21;96028.94;6126267;23;20035;-62
2022/10/02 04:07:19;;;;;;;0.63;0.52;;;;;;;16.74;74.00;96028.31;6126990;23;20100;-62
2022/10/02 04:09:52;;;;;;;0.60;0.60;;;;;;;16.68;74.14;96041.97;6125934;23;20064;-63
2022/10/02 04:12:26;;;;;;;0.43;0.43;;;;;;;16.68;74.54;96036.69;6126881;23;20022;-61
2022/10/02 04:14:57;;;;;;;1.25;0.50;;;;;;;16.64;72.61;96040.47;6126344;23;20402;-62
2022/10/02 04:17:28;;;;;;;;;;;;;;;16.65;73.30;96048.28;6126994;23;20025;-63
2022/10/02 04:20:00;;;;;;;0.40;0.40;;;;;;;16.58;73.63;96059.41;6126561;23;20343;-63
2022/10/02 04:22:35;;;;;;;0.40;0.40;;;;;;;16.58;73.89;96078.72;6126639;23;20077;-62
2022/10/02 04:25:10;;;;;;;0.50;0.50;;;;;;;16.48;70.03;96089.09;6126044;23;20468;-61
2022/10/02 04:27:40;;;;;;;0.40;0.40;;;;;;;16.57;69.91;96081.47;6126027;23;20326;-63
2022/10/02 04:30:11;;;;;;;0.50;0.50;;;;;;;16.60;68.29;96078.63;6126452;23;20026;-62
2022/10/02 04:32:38;;;;;;;0.60;0.60;;;;;;;16.51;70.69;96077.47;6126605;23;20018;-63
2022/10/02 04:35:16;;;;;;;0.40;0.40;;;;;;;16.38;71.44;96082.75;6126234;23;20094;-62
2022/10/02 04:38:23;;;;;;;0.40;0.40;;;;;;;16.42;69.42;96081.59;6125759;23;20022;-62
2022/10/02 04:41:04;;;;;;;0.50;0.50;;;;;;;16.46;70.26;96085.69;6126061;23;20460;-63
2022/10/02 04:43:45;;;;;;;0.47;0.35;;;;;;;16.46;68.79;96092.78;6125620;23;20022;-63
2022/10/02 04:46:28;;;;;;;0.40;0.40;;;;;;;16.49;69.67;96090.75;6126272;23;20022;-62
2022/10/02 04:49:16;;;;;;;0.50;0.50;;;;;;;16.48;70.05;96078.53;6125714;23;20018;-63
2022/10/02 04:51:57;;;;;;;0.50;0.50;;;;;;;16.51;67.22;96064.25;6126431;23;20018;-62
2022/10/02 04:54:34;;;;;;;;;;;;;;;16.55;67.11;96076.28;6126622;23;20345;-62
2022/10/02 04:57:35;;;;;;;0.50;0.50;;;;;;;16.62;67.19;96084.63;6126426;23;19987;-62
2022/10/02 05:00:08;;;;;;;0.40;0.40;;;;;;;16.67;65.42;96093.06;6048634;23;20030;-61
2022/10/02 05:03:09;;;;;;;0.40;0.40;;;;;;;16.74;65.66;96104.88;6126164;23;20022;-62
2022/10/02 05:05:54;;;;;;;1.83;0.50;;;;;;;16.76;65.87;96112.69;6126028;23;20409;-62
2022/10/02 05:08:41;;;;;;;0.30;0.30;;;;;;;16.78;66.12;96113.44;6126000;23;20468;-62
2022/10/02 05:11:46;;;;;;;0.40;0.40;;;;;;;16.82;64.53;96117.56;6126269;23;20057;-62
2022/10/02 05:14:31;;;;;;;0.52;0.52;;;;;;;16.84;64.29;96112.16;6126086;23;20017;-62
2022/10/02 05:17:14;;;;;;;0.95;0.60;;;;;;;16.90;64.53;96115.25;6126198;23;20018;-61
2022/10/02 05:19:58;;;;;;;0.40;0.40;;;;;;;16.97;64.70;96110.34;6125639;23;20464;-61
2022/10/02 05:22:44;;;;;;;0.50;0.50;;;;;;;17.18;65.70;96115.09;6126410;23;20026;-61
2022/10/02 05:25:35;;;;;;;0.70;0.70;;;;;;;17.25;63.28;96118.97;6126155;23;20024;-61
2022/10/02 05:28:10;;;;;;;;;;;;;;;17.36;63.74;96107.63;6126127;23;20389;-61
2022/10/02 05:30:46;;;;;;;0.95;0.85;;;;;;;17.39;65.35;96115.34;6127094;23;19994;-61
2022/10/02 05:33:38;;;;;;;1.00;1.00;;;;;;;17.43;63.90;96113.34;6127873;23;20018;-61
2022/10/02 05:36:33;;;;;;;1.10;0.90;;;;;;;17.41;64.44;96123.16;6127705;23;20101;-62
2022/10/02 05:39:08;;;;;;;2.17;1.00;;;;;;;17.40;64.51;96137.34;6127889;23;20026;-61
2022/10/02 05:41:50;;;;;;;1.25;1.15;;;;;;;17.46;64.05;96146.63;6127969;23;20075;-61
2022/10/02 05:44:22;;;;;;;0.90;0.90;;;;;;;18.35;61.87;96150.75;6127820;23;20025;-58
2022/10/02 05:46:56;;;;;;;1.10;0.88;;;;;;;19.98;55.43;96158.41;6127403;23;20030;-62
2022/10/02 05:49:35;;;;;;;1.25;1.15;;;;;;;20.95;52.48;96159.22;6127786;23;20540;-61
2022/10/02 05:52:06;;;;;;;0.93;0.88;;;;;;;20.99;51.85;96156.31;6127754;23;20415;-61
2022/10/02 05:54:42;;;;;;;0.90;0.82;;;;;;;20.56;51.76;96151.03;6127349;23;20028;-61
2022/10/02 05:57:16;;;;;;;1.77;0.82;;;;;;;20.25;52.83;96150.94;6127775;23;20018;-61
2022/10/02 05:59:53;;;;;;;0.63;0.63;;;;;;;20.82;52.72;96148.78;6127347;23;20022;-61
2022/10/02 06:02:36;;;;;;;0.63;0.60;;;;;;;21.93;50.67;96155.19;6127238;23;20029;-61
2022/10/02 06:05:14;;;;;;;0.75;0.60;;;;;;;23.13;45.93;96151.38;6127632;23;20026;-59
2022/10/02 06:07:46;;;;;;;0.95;0.63;;;;;;;24.32;43.01;96172.84;6127449;23;20018;-62
2022/10/02 06:10:18;;;;;;;0.50;0.50;;;;;;;25.19;40.50;96157.91;6127336;23;20025;-62
2022/10/02 06:12:55;;;;;;;0.50;0.50;;;;;;;25.98;39.51;96161.38;6127438;23;20026;-61
2022/10/02 06:15:27;;;;;;;0.40;0.40;;;;;;;26.13;38.79;96153.53;6128076;23;20021;-62
2022/10/02 06:18:00;;;;;;;0.70;0.70;;;;;;;26.31;38.07;96147.22;6127464;23;20022;-61
2022/10/02 06:20:34;;;;;;;0.47;0.47;;;;;;;26.88;35.02;96161.56;6127400;23;20345;-62
2022/10/02 06:23:08;;;;;;;0.45;0.45;;;;;;;26.95;34.93;96159.03;6127321;23;20353;-63
2022/10/02 06:25:40;;;;;;;0.60;0.50;;;;;;;27.14;34.48;96159.69;6127069;23;20084;-63
2022/10/02 06:28:15;;;;;;;0.50;0.50;;;;;;;27.77;33.55;96164.31;6127110;23;20026;-63
2022/10/02 06:30:47;;;;;;;1.63;0.52;;;;;;;28.37;33.59;96165.47;6127291;23;20344;-63
2022/10/02 06:33:19;;;;;;;0.45;0.40;;;;;;;28.59;32.06;96152.16;6127243;23;20022;-63
2022/10/02 06:36:06;;;;;;;0.45;0.40;;;;;;;28.84;31.11;96153.78;6126674;23;20472;-62
2022/10/02 06:38:48;;;;;;;0.50;0.50;;;;;;;29.23;30.78;96151.88;6127227;23;20029;-63
2022/10/02 06:41:23;;;;;;;0.45;0.45;;;;;;;29.77;29.36;96144.50;6127238;23;20026;-63
2022/10/02 06:44:13;;;;;;;0.40;0.40;;;;;;;29.41;29.62;96146.13;6127649;23;20389;-62
2022/10/02 06:46:51;;;;;;;0.95;0.60;;;;;;;29.04;29.98;96146.03;6127495;23;20105;-62
2022/10/02 06:49:31;;;;;;;0.40;0.40;;;;;;;29.08;29.30;96149.19;6127433;23;20025;-62
2022/10/02 06:52:08;;;;;;;1.75;0.65;;;;;;;28.32;31.38;96148.19;6126929;23;20022;-61
2022/10/02 06:54:54;;;;;;;1.27;0.73;;;;;;;28.41;31.78;96160.53;6126664;23;20018;-63
2022/10/02 06:57:44;;;;;;;0.43;0.43;;;;;;;28.82;31.35;96156.66;6126978;23;20030;-62
2022/10/02 07:00:17;;;;;;;0.75;0.52;;;;;;;29.17;31.43;96163.38;6126854;23;20096;-62
2022/10/02 07:03:21;;;;;;;0.40;0.30;;;;;;;29.32;30.07;96166.94;6126728;23;20022;-62
2022/10/02 07:06:16;;;;;;;0.50;0.50;;;;;;;28.66;30.19;96168.41;6119175;23;20018;-62
2022/10/02 07:09:00;;;;;;;0.40;0.40;;;;;;;28.09;29.06;96179.41;6126878;23;20089;-62
2022/10/02 07:11:34;;;;;;;0.40;0.40;;;;;;;27.61;30.40;96176.78;6126908;23;20437;-61
2022/10/02 07:14:24;;;;;;;0.32;0.30;;;;;;;27.21;30.25;96180.28;6126685;23;20025;-61
2022/10/02 07:17:08;;;;;;;0.20;0.20;;;;;;;27.10;30.95;96181.50;6126485;23;20036;-62
2022/10/02 07:19:50;;;;;;;1.40;0.40;;;;;;;26.81;32.40;96176.66;6126178;23;20353;-62
2022/10/02 07:22:34;;;;;;;0.30;0.30;;;;;;;26.41;32.20;96181.88;6127013;23;20022;-61
2022/10/02 07:25:21;;;;;;;0.60;0.50;;;;;;;25.79;32.57;96192.81;6125501;23;20026;-62
2022/10/02 07:27:57;;;;;;;3.60;0.40;;;;;;;25.87;35.21;96181.28;6126625;23;20345;-61
2022/10/02 07:30:24;;;;;;;0.50;0.40;;;;;;;26.25;34.32;96186.22;6126909;23;20457;-62
2022/10/02 07:33:09;;;;;;;0.40;0.40;;;;;;;26.41;32.46;96201.50;6126802;23;20021;-62
2022/10/02 07:35:47;;;;;;;0.38;0.38;;;;;;;25.98;32.52;96196.22;6126454;23;20018;-62
2022/10/02 07:38:42;;;;;;;0.35;0.35;;;;;;;25.79;33.02;96198.16;6126192;23;20028;-61
2022/10/02 07:41:34;;;;;;;0.30;0.30;;;;;;;26.08;32.83;96199.59;6126800;23;20077;-61
2022/10/02 07:44:17;;;;;;;0.30;0.30;;;;;;;26.40;33.11;96201.66;6126818;23;20022;-62
2022/10/02 07:46:53;;;;;;;0.90;0.38;;;;;;;26.41;32.64;96204.16;6126614;23;20018;-62
2022/10/02 07:49:39;;;;;;;0.52;0.52;;;;;;;26.38;31.64;96196.47;6125868;23;20026;-62
2022/10/02 07:52:16;;;;;;;0.20;0.20;;;;;;;26.40;31.25;96185.56;6126340;23;20345;-62
2022/10/02 07:55:09;;;;;;;0.30;0.20;;;;;;;26.22;32.96;96190.03;6126744;23;20029;-62
2022/10/02 07:57:51;;;;;;;0.68;0.40;;;;;;;26.05;31.24;96183.84;6126839;23;20022;-62
2022/10/02 08:00:21;;;;;;;0.40;0.40;;;;;;;26.24;30.31;96189.88;6126339;23;20024;-63
2022/10/02 08:02:53;;;;;;;0.30;0.30;;;;;;;26.05;30.36;96191.03;6126295;23;20096;-62
2022/10/02 08:05:26;;;;;;;0.55;0.40;;;;;;;25.84;32.18;96192.31;6126412;23;20018;-61
2022/10/02 08:07:59;;;;;;;0.38;0.30;;;;;;;25.75;30.40;96183.44;6126401;23;20032;-62
2022/10/02 08:10:31;;;;;;;0.20;0.20;;;;;;;25.93;29.39;96199.38;6126705;23;20040;-64
2022/10/02 08:13:04;;;;;;;0.80;0.30;;;;;;;25.73;29.76;96191.63;6126498;23;20018;-63
2022/10/02 08:15:37;;;;;;;0.20;0.20;;;;;;;25.67;30.17;96178.06;6126437;23;20022;-62
2022/10/02 08:18:14;;;;;;;0.20;0.20;;;;;;;25.63;28.79;96196.28;6126449;23;20523;-63
2022/10/02 08:20:47;;;;;;;0.38;0.30;;;;;;;25.16;29.27;96182.31;6126017;23;20410;-62
2022/10/02 08:23:21;;;;;;;0.35;0.28;;;;;;;24.92;30.77;96183.03;6125900;23;20029;-62
2022/10/02 08:25:59;;;;;;;0.22;0.22;;;;;;;25.13;29.29;96171.94;6126784;23;20022;-63
2022/10/02 08:28:32;;;;;;;0.15;0.15;;;;;;;25.09;29.44;96194.66;6126046;23;20018;-63
2022/10/02 08:31:02;;;;;;;0.10;0.10;;;;;;;25.23;28.65;96177.19;6126485;23;20026;-63
2022/10/02 08:33:31;;;;;;;1.73;0.60;;;;;;;25.22;29.14;96175.47;6126837;23;20041;-63
2022/10/02 08:36:41;;;;;;;0.37;0.37;;;;;;;25.19;29.58;96183.84;6126548;23;20318;-63
2022/10/02 08:39:31;;;;;;;0.50;0.30;;;;;;;25.52;28.68;96183.97;6125815;23;20056;-63
2022/10/02 08:42:38;;;;;;;0.28;0.28;;;;;;;25.61;29.19;96166.97;6121934;23;20022;-62
2022/10/02 08:45:46;;;;;;;0.98;0.30;;;;;;;25.64;29.61;96175.72;6126392;23;20025;-63
2022/10/02 08:48:49;;;;;;;0.30;0.30;;;;;;;25.54;29.41;96184.66;6104118;23;20097;-62
2022/10/02 08:52:08;;;;;;;0.32;0.32;;;;;;;25.56;28.78;96190.72;6126613;23;20389;-63
2022/10/02 08:55:21;;;;;;;0.63;0.60;;;;;;;25.19;29.65;96186.53;6126205;23;20077;-63
2022/10/02 08:58:12;;;;;;;2.13;1.85;;;;;;;25.04;31.08;96186.28;6126162;23;20018;-63
2022/10/02 09:00:55;;;;;;;0.73;0.63;;;;;;;25.36;30.46;96201.66;6062267;23;20330;-63
2022/10/02 09:03:58;;;;;;;0.40;0.40;;;;;;;25.41;28.65;96203.88;6127027;23;20377;-63
2022/10/02 09:06:57;;;;;;;0.50;0.50;;;;;;;25.03;26.58;96193.44;6128052;23;20018;-63
2022/10/02 09:10:10;;;;;;;0.20;0.20;;;;;;;24.92;27.31;96205.25;6127196;23;20018;-63
2022/10/02 09:13:10;;;;;;;0.20;0.20;;;;;;;24.82;25.72;96213.34;6043511;23;20026;-65
2022/10/02 09:15:46;;;;;;;0.20;0.20;;;;;;;24.81;26.76;96208.16;6068886;23;20356;-62
2022/10/02 09:18:22;;;;;;;0.22;0.22;;;;;;;24.83;25.88;96200.84;6128047;23;20456;-63
2022/10/02 09:21:20;;;;;;;0.30;0.30;;;;;;;24.89;27.62;96212.75;6128214;23;20021;-62
2022/10/02 09:24:24;;;;;;;0.38;0.32;;;;;;;24.63;25.97;96221.56;6127919;23;20026;-63
2022/10/02 09:27:23;;;;;;;0.35;0.35;;;;;;;24.42;26.64;96207.53;6127961;23;20026;-63
2022/10/02 09:30:18;;;;;;;0.30;0.30;;;;;;;24.31;26.51;96203.25;6127879;23;20022;-63
2022/10/02 09:33:23;;;;;;;0.90;0.22;;;;;;;24.45;25.07;96201.88;6127836;23;20412;-63
2022/10/02 09:36:29;;;;;;;0.63;0.22;;;;;;;24.58;28.64;96203.31;6127416;23;20018;-62
2022/10/02 09:39:30;;;;;;;0.30;0.30;;;;;;;24.54;25.54;96215.31;6128294;23;20025;-63
2022/10/02 09:42:43;;;;;;;0.20;0.20;;;;;;;24.06;26.59;96200.31;6127943;23;20460;-62
2022/10/02 09:46:11;;;;;;;0.20;0.20;;;;;;;24.02;27.25;96192.78;6059688;23;20018;-63
2022/10/02 09:49:19;;;;;;;0.22;0.22;;;;;;;24.28;29.06;96194.69;6128029;23;20024;-63
2022/10/02 09:52:28;;;;;;;0.38;0.30;;;;;;;24.46;26.07;96195.53;6127790;23;20461;-64
2022/10/02 09:55:35;;;;;;;0.35;0.35;;;;;;;24.72;25.04;96188.53;6127909;23;20076;-64
2022/10/02 09:58:37;;;;;;;0.30;0.20;;;;;;;24.81;25.92;96219.69;6127910;23;20022;-63
2022/10/02 10:01:42;;;;;;;0.10;0.10;;;;;;;24.61;24.81;96194.97;6127177;23;20381;-64
2022/10/02 10:04:49;;;;;;;0.73;0.28;;;;;;;24.66;27.07;96200.72;6094216;23;20089;-62
2022/10/02 10:07:58;;;;;;;1.75;0.20;;;;;;;24.60;27.41;96220.03;6127465;23;20025;-63
2022/10/02 10:10:52;;;;;;;0.32;0.20;;;;;;;24.50;26.73;96216.59;6127379;23;20026;-62
2022/10/02 10:14:04;;;;;;;0.17;0.17;;;;;;;24.35;26.11;96217.16;6122891;23;20080;-62
2022/10/02 10:17:13;;;;;;;0.20;0.20;;;;;;;24.41;27.86;96216.53;6009629;23;20027;-61
2022/10/02 10:20:21;;;;;;;0.20;0.20;;;;;;;24.42;28.54;96207.53;6127541;23;20033;-63
2022/10/02 10:23:24;;;;;;;0.15;0.10;;;;;;;24.45;27.09;96212.56;5981834;24;20031;-62
2022/10/02 10:26:18;;;;;;;0.70;0.20;;;;;;;24.52;28.92;96226.16;6127709;23;20069;-63
2022/10/02 10:29:38;;;;;;;0.20;0.20;;;;;;;24.26;26.94;96232.25;6123123;23;20018;-62
2022/10/02 10:32:29;;;;;;;1.80;0.28;;;;;;;23.87;27.01;96240.50;6127294;23;20105;-62
2022/10/02 10:35:41;;;;;;;0.30;0.30;;;;;;;23.73;30.06;96280.06;6104387;23;20025;-63
2022/10/02 10:38:40;;;;;;;0.38;0.25;;;;;;;23.43;29.17;96282.00;6127460;23;20022;-62
2022/10/02 10:41:36;;;;;;;1.90;0.50;;;;;;;23.18;28.76;96265.63;6127191;23;20025;-62
2022/10/02 10:44:31;;;;;;;2.70;0.40;;;;;;;22.82;30.04;96287.56;6127071;23;20417;-61
2022/10/02 10:47:43;;;;;;;0.35;0.35;;;;;;;22.83;29.72;96294.59;6127094;23;20024;-61
2022/10/02 10:50:49;;;;;;;0.68;0.60;;;;;;;22.64;30.05;96288.28;6127270;23;20491;-63
2022/10/02 10:53:42;;;;;;;1.75;0.93;;;;;;;22.64;30.95;96306.09;6126934;23;20025;-63
2022/10/02 10:56:39;;;;;;;1.08;0.30;;;;;;;22.48;30.97;96302.13;6122972;23;20025;-61
2022/10/02 10:59:48;;;;;;;3.83;0.20;;;;;;;22.39;30.76;96310.97;6126832;23;20025;-63
2022/10/02 11:02:54;;;;;;;1.00;0.55;;;;;;;22.20;31.30;96310.78;6075616;23;20021;-62
2022/10/02 11:05:55;;;;;;;0.47;0.45;;;;;;;22.21;29.79;96308.94;6126765;23;20101;-62
2022/10/02 11:08:38;;;;;;;;;;;;;;;22.18;30.91;96312.75;6059592;23;20352;-63
2022/10/02 11:11:17;;;;;;;0.73;0.30;;;;;;;22.22;31.21;96322.13;6126813;23;19916;-62
2022/10/02 11:14:04;;;;;;;0.77;0.30;;;;;;;22.17;30.98;96324.38;6126945;23;20089;-62
2022/10/02 11:16:57;;;;;;;0.38;0.38;;;;;;;22.17;30.26;96340.34;6126595;23;20054;-62
2022/10/02 11:19:42;;;;;;;0.20;0.20;;;;;;;22.01;30.06;96329.38;6126856;23;20050;-63
2022/10/02 11:22:30;;;;;;;0.20;0.20;;;;;;;22.09;30.27;96335.69;6126900;23;20097;-62
2022/10/02 11:25:19;;;;;;;0.55;0.20;;;;;;;22.13;30.38;96327.44;6123037;23;20022;-62
2022/10/02 11:28:28;;;;;;;0.60;0.60;;;;;;;22.05;30.26;96336.97;6122689;23;20419;-63
2022/10/02 11:31:16;;;;;;;0.65;0.20;;;;;;;21.98;30.87;96337.63;6087873;23;20029;-63
2022/10/02 11:34:28;;;;;;;0.40;0.40;;;;;;;21.99;31.11;96329.50;6126950;23;20021;-64
2022/10/02 11:37:14;;;;;;;0.40;0.30;;;;;;;21.97;31.76;96328.78;6126335;23;20026;-62
2022/10/02 11:40:15;;;;;;;2.00;0.30;;;;;;;21.87;30.79;96325.25;6126712;23;20045;-62
2022/10/02 11:43:10;;;;;;;0.80;0.32;;;;;;;21.96;31.31;96313.81;6126508;23;20061;-63
2022/10/02 11:46:11;;;;;;;0.30;0.30;;;;;;;22.00;30.82;96299.22;6126700;23;20080;-62
2022/10/02 11:49:19;;;;;;;0.20;0.20;;;;;;;21.96;32.06;96308.47;6080005;23;20025;-61
2022/10/02 11:52:22;;;;;;;0.20;0.20;;;;;;;21.68;30.96;96301.09;6126936;23;20037;-62
2022/10/02 11:55:13;;;;;;;0.20;0.20;;;;;;;21.57;31.50;96293.19;6126571;23;20026;-61
2022/10/02 11:57:54;;;;;;;2.35;0.47;;;;;;;21.58;32.25;96294.84;6126272;23;20018;-63
2022/10/02 12:00:54;;;;;;;0.50;0.43;;;;;;;21.74;32.43;96293.53;6126335;23;20468;-64
2022/10/02 12:03:35;;;;;;;0.22;0.22;;;;;;;21.71;31.79;96305.28;6126882;23;20436;-62
2022/10/02 12:06:05;;;;;;;;;;;;;;;21.69;31.55;96309.88;6127097;23;20033;-63
2022/10/02 12:08:47;;;;;;;0.50;0.50;;;;;;;21.54;31.25;96307.59;6126234;23;20391;-63
2022/10/02 12:11:24;;;;;;;0.30;0.30;;;;;;;21.59;32.28;96296.56;6126429;23;20022;-63
2022/10/02 12:14:05;;;;;;;0.32;0.30;;;;;;;21.76;33.77;96312.91;6126637;23;20053;-62
2022/10/02 12:16:50;;;;;;;0.35;0.35;;;;;;;21.69;32.84;96316.06;6126593;23;20083;-64
2022/10/02 12:19:30;;;;;;;0.30;0.30;;;;;;;21.61;32.60;96302.56;6126530;23;20022;-63
2022/10/02 12:28:00;;;;;;;2.00;0.40;;;;;;;21.66;31.84;96302.16;6126433;23;20532;-61
2022/10/02 12:30:35;;;;;;;1.60;0.40;;;;;;;21.61;31.89;96305.22;6126442;23;20348;-61
2022/10/02 12:33:18;;;;;;;0.65;0.30;;;;;;;21.62;31.86;96319.38;6126370;23;20202;-62
2022/10/02 12:36:12;;;;;;;0.40;0.22;;;;;;;21.51;32.12;96315.84;6126359;23;20028;-62
2022/10/02 12:38:51;;;;;;;0.40;0.40;;;;;;;21.61;32.43;96310.56;6127186;23;20021;-63
2022/10/02 12:41:37;;;;;;;0.30;0.30;;;;;;;21.54;32.19;96318.22;6128049;23;20054;-63
2022/10/02 12:44:24;;;;;;;0.40;0.30;;;;;;;21.57;32.70;96320.63;6128048;23;20077;-64
2022/10/02 12:47:11;;;;;;;0.32;0.30;;;;;;;21.53;31.93;96305.06;6128479;23;20472;-63
2022/10/02 12:49:50;;;;;;;1.20;0.50;;;;;;;21.43;32.38;96297.88;6128370;23;20508;-62
2022/10/02 12:52:50;;;;;;;0.30;0.30;;;;;;;21.48;32.74;96307.25;6127409;23;20032;-63